Time;durP1;ratioP1;P1;durP2;ratioP2;P2;SDS_P1;SDS_P2;PMS_P1;PMS_P2;Temp;Humidity;BMP_temperature;BMP_pressure;BME280_temperature;BME280_humidity;BME280_pressure;Samples;Min_cycle;Max_cycle;Signal;HPM_P1;HPM_P2
2023/06/11 00:01:29;;;;;;;;;42.33;36.33;;;;;24.62;59.63;100796.47;4935070;28;45305;-71
2023/06/11 00:03:57;;;;;;;;;43.67;37.33;;;;;24.55;59.60;100798.63;4938664;28;45398;-71
2023/06/11 00:06:23;;;;;;;;;43.00;36.33;;;;;24.58;59.67;100807.44;4935323;28;45423;-69
2023/06/11 00:08:53;;;;;;;;;40.00;34.67;;;;;24.58;59.97;100807.44;4936770;28;45886;-68
2023/06/11 00:11:20;;;;;;;;;41.33;34.00;;;;;24.55;59.75;100795.94;4938911;28;46253;-70
2023/06/11 00:13:46;;;;;;;;;43.00;34.67;;;;;24.51;60.12;100796.19;4937456;28;45434;-70
2023/06/11 00:16:13;;;;;;;;;42.33;34.67;;;;;24.46;59.97;100792.88;4938339;28;45487;-72
2023/06/11 00:18:42;;;;;;;;;41.67;35.67;;;;;24.38;60.71;100804.03;4937796;28;45439;-69
2023/06/11 00:21:10;;;;;;;;;41.67;34.67;;;;;24.37;61.24;100809.44;4932806;28;46796;-71
2023/06/11 00:23:42;;;;;;;;;36.00;32.00;;;;;24.33;61.60;100803.41;4936656;28;45563;-69
2023/06/11 00:26:07;;;;;;;;;40.33;32.67;;;;;24.30;60.88;100816.97;4940117;28;45401;-70
2023/06/11 00:28:36;;;;;;;;;41.00;33.00;;;;;24.21;60.06;100806.75;4939486;28;45410;-68
2023/06/11 00:31:05;;;;;;;;;37.33;33.00;;;;;24.20;61.24;100808.53;4935264;28;46015;-73
2023/06/11 00:33:32;;;;;;;;;36.33;32.33;;;;;24.13;61.22;100808.03;4933430;28;45409;-70
2023/06/11 00:36:11;;;;;;;;;32.33;28.67;;;;;24.13;61.02;100810.72;4932882;28;45452;-68
2023/06/11 00:38:37;;;;;;;;;34.67;31.33;;;;;24.12;61.55;100808.09;4949986;28;45519;-67
2023/06/11 00:41:03;;;;;;;;;32.33;29.67;;;;;24.12;60.95;100808.09;4933742;28;46552;-69
2023/06/11 00:43:33;;;;;;;;;37.00;31.33;;;;;24.19;61.73;100814.84;4934708;28;45702;-69
2023/06/11 00:46:02;;;;;;;;;37.33;32.00;;;;;24.20;61.11;100811.22;4934190;28;45539;-68
2023/06/11 00:48:28;;;;;;;;;38.00;31.67;;;;;24.27;61.48;100814.44;4933914;28;45500;-67
2023/06/11 00:50:54;;;;;;;;;36.33;33.33;;;;;24.23;61.62;100808.41;4937000;28;46034;-72
2023/06/11 00:53:21;;;;;;;;;33.67;32.00;;;;;24.23;61.86;100813.75;4934946;28;45755;-74
2023/06/11 00:55:48;;;;;;;;;39.67;33.00;;;;;24.32;61.63;100815.94;4934647;28;45472;-68
2023/06/11 00:58:17;;;;;;;;;37.67;33.33;;;;;24.40;61.45;100826.22;4934861;28;45298;-68
2023/06/11 01:00:49;;;;;;;;;43.33;34.67;;;;;24.34;61.43;100824.75;4934248;28;45562;-72
2023/06/11 01:03:17;;;;;;;;;45.00;34.67;;;;;24.29;62.40;100823.25;4935090;28;45596;-72
2023/06/11 01:05:52;;;;;;;;;35.33;31.00;;;;;24.20;62.02;100821.91;4938684;28;45610;-69
2023/06/11 01:08:19;;;;;;;;;39.33;33.00;;;;;24.25;61.73;100833.28;4940303;28;45595;-68
2023/06/11 01:10:45;;;;;;;;;37.33;32.67;;;;;24.15;61.97;100812.41;4940120;28;48187;-69
2023/06/11 01:13:11;;;;;;;;;32.67;30.67;;;;;24.15;62.31;100809.75;4937655;28;45360;-68
2023/06/11 01:15:36;;;;;;;;;33.33;30.67;;;;;24.25;62.21;100817.22;4936415;28;45415;-74
2023/06/11 01:18:11;;;;;;;;;33.67;32.00;;;;;24.30;62.95;100833.03;4937487;28;45373;-76
2023/06/11 01:20:42;;;;;;;;;39.33;34.00;;;;;24.16;63.19;100827.56;4937950;28;45298;-70
2023/06/11 01:23:16;;;;;;;;;36.33;32.33;;;;;24.19;62.77;100822.88;4937831;28;45405;-71
2023/06/11 01:26:15;;;;;;;;;37.67;33.33;;;;;24.17;62.72;100818.56;4937772;28;45346;-68
2023/06/11 01:28:44;;;;;;;;;38.00;30.67;;;;;24.09;62.80;100809.13;4937608;28;45453;-69
2023/06/11 01:31:15;;;;;;;;;37.00;33.00;;;;;24.08;63.05;100811.88;4937700;28;46498;-68
2023/06/11 01:33:42;;;;;;;;;36.67;30.67;;;;;24.06;62.30;100787.91;4937561;28;45448;-69
2023/06/11 01:36:10;;;;;;;;;42.00;34.00;;;;;24.08;62.00;100777.97;4936585;28;45477;-72
2023/06/11 01:38:41;;;;;;;;;38.00;33.67;;;;;24.26;62.12;100807.38;4938424;28;45351;-70
2023/06/11 01:41:10;;;;;;;;;33.00;29.33;;;;;24.18;62.29;100793.53;4937434;28;45500;-69
2023/06/11 01:43:35;;;;;;;;;32.00;28.33;;;;;24.26;61.46;100802.88;4937769;28;45358;-70
2023/06/11 01:46:03;;;;;;;;;35.67;32.00;;;;;24.20;60.82;100796.97;4937726;28;45438;-69
2023/06/11 01:48:28;;;;;;;;;38.67;34.00;;;;;24.19;60.23;100808.66;4937799;28;45428;-69
2023/06/11 01:50:54;;;;;;;;;38.33;30.67;;;;;24.02;60.03;100786.31;4937389;28;45670;-74
2023/06/11 01:53:19;;;;;;;;;36.67;30.33;;;;;24.13;59.97;100807.13;4936192;28;45728;-69
2023/06/11 01:55:45;;;;;;;;;29.00;29.00;;;;;24.01;59.96;100791.75;4937866;28;45372;-71
2023/06/11 01:58:12;;;;;;;;;35.00;30.00;;;;;24.08;59.95;100803.84;4937701;28;45443;-71
2023/06/11 02:00:37;;;;;;;;;34.00;31.67;;;;;24.12;59.98;100810.78;4940314;28;45736;-69
2023/06/11 02:03:05;;;;;;;;;37.33;32.00;;;;;24.07;60.00;100805.66;4937085;28;45507;-76
2023/06/11 02:05:31;;;;;;;;;35.33;32.00;;;;;24.10;60.12;100816.19;4936050;28;45695;-74
2023/06/11 02:07:56;;;;;;;;;45.67;35.33;;;;;24.09;59.82;100795.75;4940304;28;45481;-70
2023/06/11 02:10:26;;;;;;;;;34.67;31.67;;;;;24.11;60.00;100812.59;4938576;28;45884;-70
2023/06/11 02:12:51;;;;;;;;;39.33;32.67;;;;;24.16;60.06;100804.31;4937540;28;45469;-73
2023/06/11 02:15:19;;;;;;;;;34.00;30.33;;;;;23.99;60.46;100797.19;4935361;28;45482;-79
2023/06/11 02:17:44;;;;;;;;;35.33;32.33;;;;;24.06;60.56;100811.09;4938085;28;45490;-71
2023/06/11 02:20:11;;;;;;;;;40.33;32.00;;;;;24.04;60.79;100807.66;4937245;28;46558;-73
2023/06/11 02:22:37;;;;;;;;;36.00;31.67;;;;;23.97;60.85;100796.41;4939840;28;45471;-75
2023/06/11 02:25:03;;;;;;;;;41.00;34.00;;;;;24.03;61.31;100795.22;4952935;28;45279;-78
2023/06/11 02:27:29;;;;;;;;;43.00;34.00;;;;;23.97;61.29;100795.56;4936808;28;45391;-73
2023/06/11 02:29:56;;;;;;;;;37.67;33.00;;;;;24.01;61.70;100811.34;4937361;28;46131;-71
2023/06/11 02:32:22;;;;;;;;;41.67;32.33;;;;;23.95;61.94;100798.31;4935813;28;45712;-69
2023/06/11 02:34:48;;;;;;;;;42.00;35.00;;;;;23.91;61.33;100794.91;4935905;28;45316;-72
2023/06/11 02:37:13;;;;;;;;;35.67;32.00;;;;;23.98;61.00;100795.44;4937110;28;45426;-73
2023/06/11 02:39:39;;;;;;;;;40.33;33.67;;;;;23.90;61.06;100781.63;4936000;28;47615;-72
2023/06/11 02:42:05;;;;;;;;;42.33;32.33;;;;;24.02;60.64;100793.50;4938715;28;45465;-75
2023/06/11 02:44:31;;;;;;;;;39.00;33.67;;;;;23.92;60.84;100783.28;4935919;28;45457;-73
2023/06/11 02:46:56;;;;;;;;;33.00;31.33;;;;;24.04;59.97;100789.78;4937898;28;45482;-70
2023/06/11 02:49:22;;;;;;;;;35.67;30.33;;;;;24.00;60.21;100790.03;4936336;28;46523;-71
2023/06/11 02:51:48;;;;;;;;;31.00;29.67;;;;;23.97;60.01;100775.00;4937060;28;45361;-72
2023/06/11 02:54:13;;;;;;;;;32.00;28.67;;;;;24.07;59.74;100789.63;4937384;28;45448;-73
2023/06/11 02:56:39;;;;;;;;;33.33;29.33;;;;;24.13;59.35;100786.63;4940326;28;45515;-69
2023/06/11 02:59:05;;;;;;;;;32.33;29.33;;;;;24.14;59.10;100782.13;4936325;28;46834;-79
2023/06/11 03:01:31;;;;;;;;;28.33;26.67;;;;;24.06;59.17;100770.97;4937230;28;45356;-71
2023/06/11 03:03:57;;;;;;;;;29.00;24.00;;;;;24.08;59.31;100775.31;4937085;28;45515;-73
2023/06/11 03:06:22;;;;;;;;;31.50;28.50;;;;;24.17;58.87;100779.28;4936887;28;45716;-74
2023/06/11 03:08:48;;;;;;;;;35.67;31.33;;;;;24.08;59.71;100769.06;4935110;28;47973;-73
2023/06/11 03:11:15;;;;;;;;;37.00;29.67;;;;;24.16;59.79;100784.72;4939518;28;45358;-74
2023/06/11 03:13:40;;;;;;;;;37.00;30.67;;;;;24.09;60.07;100777.03;4938563;28;45440;-69
2023/06/11 03:16:06;;;;;;;;;36.33;32.67;;;;;24.11;60.50;100780.50;4936137;28;45780;-73
2023/06/11 03:18:31;;;;;;;;;30.67;30.33;;;;;24.03;60.32;100774.66;4936339;28;46213;-71
2023/06/11 03:20:57;;;;;;;;;40.00;32.67;;;;;24.03;60.49;100777.34;4938831;28;45576;-77
2023/06/11 03:23:22;;;;;;;;;37.67;30.33;;;;;24.07;60.69;100794.13;4937973;28;45357;-74
2023/06/11 03:25:48;;;;;;;;;37.67;32.33;;;;;24.04;60.43;100781.75;4934919;28;45547;-75
2023/06/11 03:28:13;;;;;;;;;35.00;31.00;;;;;24.04;61.19;100797.81;4940426;28;45563;-74
2023/06/11 03:30:39;;;;;;;;;44.67;36.00;;;;;23.85;61.52;100786.38;4938542;28;45518;-72
2023/06/11 03:33:05;;;;;;;;;42.33;33.67;;;;;23.89;61.55;100794.16;4936171;28;45464;-70
2023/06/11 03:35:30;;;;;;;;;33.67;28.33;;;;;23.91;61.38;100791.38;4936690;28;45542;-72
2023/06/11 03:37:56;;;;;;;;;34.67;32.67;;;;;23.89;61.65;100798.63;4939686;28;46154;-70
2023/06/11 03:40:21;;;;;;;;;38.67;35.33;;;;;23.86;61.62;100793.44;4934381;28;45474;-71
2023/06/11 03:42:47;;;;;;;;;38.00;33.33;;;;;23.91;61.35;100797.59;4935490;28;45354;-71
2023/06/11 03:45:12;;;;;;;;;44.67;35.67;;;;;23.87;61.73;100805.84;4934082;28;45545;-69
2023/06/11 03:47:38;;;;;;;;;38.00;32.67;;;;;23.73;61.65;100789.63;4936516;28;45448;-77
2023/06/11 03:50:04;;;;;;;;;36.00;31.67;;;;;23.69;61.88;100789.78;4939752;28;46028;-70
2023/06/11 03:52:30;;;;;;;;;38.00;31.33;;;;;23.68;61.90;100796.09;4936794;28;45973;-71
2023/06/11 03:54:56;;;;;;;;;36.67;32.33;;;;;23.65;61.75;100798.06;4935779;28;45438;-69
2023/06/11 03:57:22;;;;;;;;;41.67;33.33;;;;;23.66;61.66;100787.28;4933975;28;46309;-74
2023/06/11 03:59:47;;;;;;;;;37.00;31.00;;;;;23.80;62.10;100808.00;4951371;28;45353;-69
2023/06/11 04:02:13;;;;;;;;;37.67;30.67;;;;;23.80;61.78;100797.31;4938661;28;45343;-69
2023/06/11 04:04:39;;;;;;;;;34.33;30.67;;;;;23.92;61.85;100801.16;4938665;28;45480;-68
2023/06/11 04:07:05;;;;;;;;;31.67;30.67;;;;;23.86;61.06;100785.41;4939525;28;46003;-68
2023/06/11 04:09:31;;;;;;;;;30.67;29.67;;;;;23.90;60.90;100797.69;4937926;28;45445;-67
2023/06/11 04:11:57;;;;;;;;;29.33;26.33;;;;;23.85;61.17;100791.72;4950402;28;45824;-69
2023/06/11 04:14:23;;;;;;;;;29.33;27.33;;;;;23.88;60.71;100803.09;4934356;28;45385;-69
2023/06/11 04:16:49;;;;;;;;;28.00;25.33;;;;;23.89;60.50;100802.19;4933406;28;46726;-66
2023/06/11 04:19:15;;;;;;;;;30.33;26.33;;;;;23.88;61.47;100797.75;4935241;28;45376;-66
2023/06/11 04:21:40;;;;;;;;;32.00;27.33;;;;;23.84;60.99;100792.66;4937889;28;45450;-66
2023/06/11 04:24:06;;;;;;;;;36.67;30.33;;;;;23.67;61.33;100778.31;4954571;28;45576;-69
2023/06/11 04:26:32;;;;;;;;;28.67;27.33;;;;;23.85;61.10;100797.06;4937899;28;46419;-70
2023/06/11 04:28:58;;;;;;;;;28.33;27.67;;;;;23.86;60.37;100794.28;4937475;28;45680;-69
2023/06/11 04:31:26;;;;;;;;;30.00;26.00;;;;;23.94;60.49;100798.38;4933918;28;45438;-69
2023/06/11 04:33:55;;;;;;;;;27.67;26.33;;;;;24.02;59.98;100804.19;4935220;28;45413;-69
2023/06/11 04:36:24;;;;;;;;;29.00;25.67;;;;;24.05;60.26;100807.56;4937679;28;45671;-70
2023/06/11 04:38:51;;;;;;;;;35.33;29.67;;;;;24.06;60.20;100811.09;4941877;28;45633;-72
2023/06/11 04:41:17;;;;;;;;;25.33;24.67;;;;;24.08;59.86;100810.09;4941705;28;45360;-72
2023/06/11 04:43:46;;;;;;;;;34.33;28.33;;;;;23.99;59.88;100789.19;4938827;28;45543;-69
2023/06/11 04:46:11;;;;;;;;;39.00;31.67;;;;;24.12;59.88;100814.31;4937109;28;47957;-69
2023/06/11 04:48:37;;;;;;;;;27.00;25.33;;;;;24.16;59.29;100809.69;4938225;28;45477;-69
2023/06/11 04:51:04;;;;;;;;;33.33;31.00;;;;;24.15;58.99;100809.75;4938039;28;45388;-72
2023/06/11 04:53:30;;;;;;;;;28.33;26.33;;;;;24.03;59.60;100809.44;4941963;28;45330;-70
2023/06/11 04:56:02;;;;;;;;;31.67;29.00;;;;;24.05;59.32;100806.69;4938217;28;45464;-69
2023/06/11 04:58:30;;;;;;;;;36.00;31.67;;;;;24.05;59.74;100814.72;4937906;28;45555;-70
2023/06/11 05:00:56;;;;;;;;;36.33;30.00;;;;;24.04;59.88;100811.19;4953527;28;45509;-70
2023/06/11 05:03:27;;;;;;;;;30.67;29.00;;;;;24.01;60.10;100803.31;4939711;28;45547;-71
2023/06/11 05:05:54;;;;;;;;;35.00;31.00;;;;;23.97;60.15;100798.22;4941889;28;46822;-69
2023/06/11 05:08:25;;;;;;;;;31.33;30.00;;;;;23.95;60.36;100800.97;4937829;28;45760;-68
2023/06/11 05:10:51;;;;;;;;;31.33;27.67;;;;;24.06;60.70;100817.34;4937638;28;45485;-71
2023/06/11 05:13:26;;;;;;;;;27.00;24.33;;;;;24.05;60.85;100806.69;4939858;28;45508;-70
2023/06/11 05:15:53;;;;;;;;;35.33;32.33;;;;;24.08;61.58;100809.19;4942042;28;45235;-70
2023/06/11 05:18:20;;;;;;;;;35.67;30.67;;;;;24.02;61.45;100810.41;4938577;28;45568;-73
2023/06/11 05:20:48;;;;;;;;;30.00;29.00;;;;;24.05;61.42;100807.56;4937490;28;46310;-69
2023/06/11 05:23:14;;;;;;;;;28.67;26.33;;;;;24.17;61.48;100814.06;4942210;28;45345;-72
2023/06/11 05:25:46;;;;;;;;;28.00;26.00;;;;;24.11;61.86;100811.75;4940386;28;45375;-69
2023/06/11 05:28:15;;;;;;;;;29.00;25.67;;;;;24.04;62.25;100807.66;4941454;28;45392;-69
2023/06/11 05:30:43;;;;;;;;;28.33;27.67;;;;;24.09;62.11;100819.84;4941789;28;45535;-70
2023/06/11 05:33:09;;;;;;;;;25.67;24.67;;;;;24.16;61.78;100817.69;4940780;28;45465;-71
2023/06/11 05:35:35;;;;;;;;;27.00;24.67;;;;;24.16;62.38;100823.06;4956729;28;46983;-70
2023/06/11 05:38:03;;;;;;;;;27.33;24.67;;;;;24.09;62.16;100808.28;4938474;28;45438;-68
2023/06/11 05:40:30;;;;;;;;;27.00;25.33;;;;;24.00;62.18;100804.25;4937088;28;45721;-73
2023/06/11 05:42:56;;;;;;;;;29.00;26.33;;;;;24.03;62.46;100809.44;4936668;28;45542;-69
2023/06/11 05:45:21;;;;;;;;;24.00;24.00;;;;;24.15;61.85;100825.81;4936359;28;47868;-69
2023/06/11 05:47:47;;;;;;;;;23.33;22.00;;;;;24.13;62.18;100810.72;4937713;28;45814;-71
2023/06/11 05:50:13;;;;;;;;;23.67;20.67;;;;;24.20;62.47;100813.91;4935043;28;45762;-70
2023/06/11 05:52:38;;;;;;;;;22.67;22.00;;;;;24.21;62.05;100812.09;4936155;28;45568;-69
2023/06/11 05:55:06;;;;;;;;;27.33;25.33;;;;;24.35;61.84;100825.59;4939581;28;45515;-71
2023/06/11 05:57:31;;;;;;;;;26.67;24.00;;;;;24.41;61.50;100822.56;4953258;28;45345;-68
2023/06/11 05:59:57;;;;;;;;;25.33;22.00;;;;;24.42;61.51;100823.47;4937915;28;45397;-68
2023/06/11 06:02:22;;;;;;;;;20.33;19.67;;;;;24.44;61.47;100829.56;4937838;28;45519;-70
2023/06/11 06:04:48;;;;;;;;;26.00;24.33;;;;;24.49;61.42;100817.72;4935924;28;45426;-69
2023/06/11 06:07:15;;;;;;;;;30.67;24.67;;;;;24.58;60.64;100816.31;4937647;28;45393;-69
2023/06/11 06:09:40;;;;;;;;;28.67;25.00;;;;;24.69;60.01;100815.75;4939134;28;45579;-71
2023/06/11 06:12:07;;;;;;;;;25.00;23.00;;;;;24.82;59.35;100830.19;4937170;28;45798;-70
2023/06/11 06:14:32;;;;;;;;;23.33;22.67;;;;;24.93;59.40;100829.56;4935448;28;47734;-72
2023/06/11 06:16:58;;;;;;;;;25.33;22.33;;;;;25.00;58.61;100832.78;4937453;28;45376;-74
2023/06/11 06:19:24;;;;;;;;;26.67;24.00;;;;;25.03;58.86;100832.59;4935660;28;45483;-70
2023/06/11 06:21:49;;;;;;;;;22.67;21.33;;;;;24.85;57.96;100805.91;4937543;28;45397;-73
2023/06/11 06:24:15;;;;;;;;;23.00;22.00;;;;;25.04;58.44;100835.19;4951623;28;47963;-70
2023/06/11 06:26:44;;;;;;;;;26.67;23.00;;;;;24.92;58.41;100815.31;4939729;28;45728;-70
2023/06/11 06:29:14;;;;;;;;;19.67;18.67;;;;;25.01;58.16;100832.69;4939741;28;45648;-70
2023/06/11 06:31:42;;;;;;;;;20.00;20.00;;;;;25.04;57.45;100835.19;4939059;28;45459;-69
2023/06/11 06:34:08;;;;;;;;;13.67;12.67;;;;;25.11;57.09;100839.25;4936894;28;45887;-71
2023/06/11 06:36:35;;;;;;;;;22.00;19.33;;;;;25.06;56.05;100835.13;4937098;28;45603;-71
2023/06/11 06:39:01;;;;;;;;;19.33;19.00;;;;;25.09;56.36;100841.16;4937075;28;45981;-70
2023/06/11 06:41:27;;;;;;;;;19.00;14.00;;;;;24.93;56.57;100822.41;4940532;28;45369;-71
2023/06/11 06:43:53;;;;;;;;;20.67;16.00;;;;;25.00;56.28;100841.66;4940993;28;45480;-73
2023/06/11 06:46:18;;;;;;;;;16.67;15.33;;;;;25.00;56.27;100836.31;4940319;28;45522;-70
2023/06/11 06:48:44;;;;;;;;;16.67;16.33;;;;;25.05;56.24;100830.69;4935678;28;45941;-74
2023/06/11 06:51:09;;;;;;;;;20.00;16.33;;;;;25.04;56.65;100837.03;4935406;28;45459;-75
2023/06/11 06:53:35;;;;;;;;;20.00;15.67;;;;;25.04;56.97;100835.19;4938286;28;45601;-73
2023/06/11 06:56:02;;;;;;;;;27.00;22.67;;;;;25.07;57.54;100836.84;4939416;28;45393;-70
2023/06/11 06:58:28;;;;;;;;;24.33;22.67;;;;;25.16;57.32;100833.63;4940567;28;45283;-71
2023/06/11 07:00:55;;;;;;;;;24.33;20.67;;;;;25.25;56.99;100837.63;4935969;28;45405;-68
2023/06/11 07:03:21;;;;;;;;;31.67;25.67;;;;;25.39;57.06;100838.56;4935583;28;46697;-68
2023/06/11 07:05:47;;;;;;;;;23.33;19.67;;;;;25.43;57.66;100839.22;4939010;28;45468;-68
2023/06/11 07:08:13;;;;;;;;;17.00;14.33;;;;;25.46;58.20;100852.47;4940843;28;45444;-70
2023/06/11 07:10:48;;;;;;;;;17.67;14.00;;;;;25.58;58.10;100851.75;4951612;28;45528;-69
2023/06/11 07:13:15;;;;;;;;;15.67;13.33;;;;;25.75;57.68;100856.13;4934083;28;47592;-69
2023/06/11 07:15:41;;;;;;;;;17.67;17.00;;;;;25.95;57.58;100859.44;4936019;28;45734;-70
2023/06/11 07:18:08;;;;;;;;;18.00;17.00;;;;;26.06;57.01;100856.13;4936885;28;45562;-76
2023/06/11 07:20:34;;;;;;;;;19.67;16.00;;;;;26.21;56.88;100847.97;4951154;28;45616;-70
2023/06/11 07:23:00;;;;;;;;;19.33;16.33;;;;;26.19;56.68;100838.28;4950681;28;45900;-70
2023/06/11 07:25:31;;;;;;;;;22.33;17.67;;;;;26.25;56.38;100831.69;4950879;28;45367;-70
2023/06/11 07:28:03;;;;;;;;;19.33;17.33;;;;;26.57;56.02;100878.03;4936131;28;45453;-70
2023/06/11 07:30:29;;;;;;;;;17.00;16.67;;;;;26.63;56.00;100866.91;4936159;28;45491;-72
2023/06/11 07:32:55;;;;;;;;;18.67;16.33;;;;;26.77;55.75;100866.06;4935534;28;46537;-71
2023/06/11 07:35:21;;;;;;;;;23.00;18.67;;;;;26.75;55.98;100852.69;4934473;28;45877;-70
2023/06/11 07:37:47;;;;;;;;;23.33;21.33;;;;;26.87;55.11;100856.44;4936377;28;45491;-69
2023/06/11 07:40:15;;;;;;;;;20.67;17.67;;;;;27.01;54.77;100864.47;4936214;28;45498;-68
2023/06/11 07:42:41;;;;;;;;;17.67;17.00;;;;;27.12;54.69;100873.63;4935305;28;45519;-69
2023/06/11 07:45:07;;;;;;;;;20.67;17.67;;;;;27.10;54.66;100857.63;4935415;28;45427;-70
2023/06/11 07:47:33;;;;;;;;;20.00;20.00;;;;;27.24;53.85;100872.88;4935722;28;45650;-66
2023/06/11 07:49:59;;;;;;;;;18.67;17.67;;;;;27.32;54.36;100875.06;4936330;28;45459;-69
2023/06/11 07:52:25;;;;;;;;;21.00;20.33;;;;;27.31;54.33;100866.13;4934200;28;46461;-70
2023/06/11 07:54:51;;;;;;;;;20.00;18.33;;;;;27.28;53.68;100877.09;4936978;28;45468;-68
2023/06/11 07:57:16;;;;;;;;;18.33;18.33;;;;;27.34;53.96;100868.63;4933815;28;45344;-69
2023/06/11 07:59:43;;;;;;;;;20.33;18.00;;;;;27.45;54.06;100871.47;4933978;28;45537;-67
2023/06/11 08:02:10;;;;;;;;;20.67;19.67;;;;;27.35;53.76;100866.78;4951508;28;46714;-67
2023/06/11 08:04:36;;;;;;;;;22.67;20.00;;;;;27.28;53.96;100866.31;4939045;28;45398;-69
2023/06/11 08:07:03;;;;;;;;;22.33;20.33;;;;;27.13;54.14;100870.88;4935555;28;45377;-67
2023/06/11 08:09:38;;;;;;;;;26.00;21.67;;;;;26.99;54.20;100862.84;4935213;28;46002;-69
2023/06/11 08:12:05;;;;;;;;;20.00;17.00;;;;;27.04;54.38;100869.63;4935880;28;46204;-70
2023/06/11 08:14:33;;;;;;;;;17.67;17.33;;;;;27.22;54.03;100869.44;4939270;28;45448;-70
2023/06/11 08:16:58;;;;;;;;;18.33;17.33;;;;;27.20;53.96;100861.47;4939946;28;45274;-70
2023/06/11 08:19:24;;;;;;;;;19.67;15.67;;;;;27.27;53.84;100848.47;4938394;28;45377;-70
2023/06/11 08:21:49;;;;;;;;;16.25;14.75;;;;;27.51;53.45;100866.66;4939387;28;45361;-70
2023/06/11 08:24:18;;;;;;;;;19.33;17.33;;;;;27.59;53.47;100857.06;4935657;28;45521;-71
2023/06/11 08:26:44;;;;;;;;;14.67;14.67;;;;;27.64;52.82;100854.06;4935491;28;45385;-70
2023/06/11 08:29:10;;;;;;;;;18.67;18.00;;;;;27.59;53.22;100830.16;4935528;28;45547;-70
2023/06/11 08:31:36;;;;;;;;;17.67;17.33;;;;;27.84;53.01;100867.06;4937863;28;46375;-71
2023/06/11 08:34:01;;;;;;;;;18.67;17.00;;;;;27.76;53.09;100853.22;4939577;28;45392;-72
2023/06/11 08:36:27;;;;;;;;;21.00;19.00;;;;;27.79;52.96;100857.56;4935624;28;45467;-71
2023/06/11 08:38:52;;;;;;;;;21.33;18.67;;;;;27.73;53.52;100855.28;4925964;28;46506;-71
2023/06/11 08:41:19;;;;;;;;;23.00;20.00;;;;;27.79;52.97;100849.50;4936074;28;45551;-69
2023/06/11 08:43:44;;;;;;;;;18.00;17.33;;;;;27.66;52.77;100836.00;4937467;28;45549;-70
2023/06/11 08:46:14;;;;;;;;;18.33;16.33;;;;;27.84;52.74;100858.16;4935634;28;46462;-71
2023/06/11 08:48:43;;;;;;;;;17.25;16.75;;;;;27.87;53.31;100850.69;4948455;28;45377;-71
2023/06/11 08:51:12;;;;;;;;;20.33;20.33;;;;;27.84;52.82;100858.16;4931844;28;45665;-72
2023/06/11 08:53:39;;;;;;;;;21.33;19.00;;;;;27.83;53.16;100865.31;4934985;28;46209;-72
2023/06/11 08:56:06;;;;;;;;;19.33;17.33;;;;;27.87;53.08;100852.53;4933047;28;45592;-71
2023/06/11 08:58:34;;;;;;;;;22.33;20.00;;;;;28.04;52.86;100856.75;4947267;28;46461;-72
2023/06/11 09:01:12;;;;;;;;;21.00;20.67;;;;;28.02;52.93;100839.84;4950677;28;45504;-69
2023/06/11 09:03:38;;;;;;;;;21.00;19.00;;;;;28.14;52.69;100838.97;4947048;28;45431;-71
2023/06/11 09:06:05;;;;;;;;;16.00;16.00;;;;;28.28;52.67;100855.03;4933770;28;45463;-71
2023/06/11 09:08:30;;;;;;;;;15.75;15.75;;;;;28.33;52.04;100858.28;4934667;28;45513;-70
2023/06/11 09:10:56;;;;;;;;;22.33;19.00;;;;;28.29;52.19;100854.06;4936878;28;45440;-69
2023/06/11 09:13:27;;;;;;;;;21.00;21.00;;;;;27.98;52.81;100859.88;4947954;28;45617;-71
2023/06/11 09:15:57;;;;;;;;;18.33;18.33;;;;;27.91;53.10;100854.06;4933507;28;45943;-70
2023/06/11 09:18:26;;;;;;;;;21.00;20.00;;;;;27.99;52.65;100857.06;4938959;28;45285;-68
2023/06/11 09:21:01;;;;;;;;;17.00;17.00;;;;;27.97;52.70;100842.84;4938648;28;45453;-69
2023/06/11 09:23:27;;;;;;;;;23.67;21.33;;;;;28.12;52.61;100860.66;4939014;28;45457;-71
2023/06/11 09:25:53;;;;;;;;;28.67;22.33;;;;;27.59;53.18;100835.53;4941103;28;45395;-71
2023/06/11 09:28:19;;;;;;;;;21.33;19.33;;;;;27.58;53.72;100868.81;4936964;28;45371;-70
2023/06/11 09:30:58;;;;;;;;;17.33;17.33;;;;;27.56;53.30;100868.03;4937998;28;46359;-70
2023/06/11 09:33:25;;;;;;;;;23.33;20.33;;;;;27.68;53.25;100863.66;4937775;28;45361;-70
2023/06/11 09:35:50;;;;;;;;;20.67;19.00;;;;;27.82;52.83;100876.19;4939295;28;45492;-72
2023/06/11 09:38:17;;;;;;;;;21.67;19.33;;;;;27.92;52.35;100874.63;4939493;28;45533;-69
2023/06/11 09:40:48;;;;;;;;;22.33;20.67;;;;;27.97;52.56;100869.78;4935891;28;46549;-69
2023/06/11 09:43:14;;;;;;;;;23.33;21.00;;;;;28.03;52.62;100865.81;4936328;28;45513;-70
2023/06/11 09:45:41;;;;;;;;;25.00;23.33;;;;;28.16;52.71;100884.66;4937496;28;45505;-74
2023/06/11 09:48:12;;;;;;;;;26.67;24.00;;;;;28.22;52.91;100881.56;4937597;28;45818;-72
2023/06/11 09:50:38;;;;;;;;;30.67;28.00;;;;;28.23;52.23;100877.88;4937286;28;45710;-71
2023/06/11 09:53:04;;;;;;;;;26.00;24.33;;;;;28.31;52.07;100889.84;4937261;28;45456;-71
2023/06/11 09:55:36;;;;;;;;;28.67;27.33;;;;;28.26;52.29;100886.63;4935886;28;45576;-70
2023/06/11 09:58:03;;;;;;;;;30.00;27.33;;;;;28.16;51.78;100892.75;4941797;28;45621;-72
2023/06/11 10:00:29;;;;;;;;;29.00;26.33;;;;;28.03;52.09;100892.72;4954293;28;47263;-70
2023/06/11 10:02:54;;;;;;;;;24.67;23.67;;;;;28.00;52.38;100879.47;4937003;28;45417;-69
2023/06/11 10:05:20;;;;;;;;;26.00;24.67;;;;;28.16;52.81;100890.91;4936555;28;45420;-70
2023/06/11 10:08:05;;;;;;;;;28.67;26.33;;;;;28.20;52.71;100886.19;4937412;28;45429;-68
2023/06/11 10:10:39;;;;;;;;;23.67;20.33;;;;;28.25;51.83;100878.63;4937145;28;45704;-68
2023/06/11 10:13:04;;;;;;;;;26.33;26.33;;;;;28.36;51.90;100884.13;4937091;28;45483;-69
2023/06/11 10:15:32;;;;;;;;;24.67;24.67;;;;;28.31;50.44;100889.00;4929358;28;45800;-70
2023/06/11 10:17:57;;;;;;;;;27.00;25.00;;;;;28.17;50.62;100881.00;4934909;28;45829;-68
2023/06/11 10:20:26;;;;;;;;;24.00;24.00;;;;;28.06;51.28;100895.22;4932901;28;46673;-71
2023/06/11 10:23:05;;;;;;;;;29.67;26.33;;;;;27.94;51.34;100890.66;4933713;28;45424;-69
2023/06/11 10:25:42;;;;;;;;;24.67;23.00;;;;;27.76;51.40;100885.53;4949393;28;45415;-70
2023/06/11 10:28:09;;;;;;;;;28.00;24.33;;;;;27.91;51.17;100886.38;4951649;28;45500;-69
2023/06/11 10:30:53;;;;;;;;;25.00;23.33;;;;;28.07;51.08;100902.31;4933076;28;45837;-70
2023/06/11 10:33:34;;;;;;;;;26.00;24.00;;;;;28.08;51.44;100901.34;4935477;28;45436;-70
2023/06/11 10:36:01;;;;;;;;;23.00;21.67;;;;;28.07;51.24;100888.84;4938594;28;45551;-69
2023/06/11 10:38:29;;;;;;;;;27.00;25.67;;;;;28.20;51.03;100905.88;4955871;28;45441;-69
2023/06/11 10:41:04;;;;;;;;;23.33;21.67;;;;;28.19;50.51;100892.50;4952606;28;45411;-69
2023/06/11 10:43:32;;;;;;;;;29.00;23.00;;;;;28.18;50.54;100897.03;4936349;28;45566;-69
2023/06/11 10:46:02;;;;;;;;;21.67;20.67;;;;;28.15;50.66;100894.56;4936832;28;45400;-69
2023/06/11 10:48:31;;;;;;;;;29.33;27.00;;;;;28.25;50.67;100900.19;4937061;28;45514;-68
2023/06/11 10:51:01;;;;;;;;;27.33;24.00;;;;;28.21;50.67;100898.66;4940546;28;45512;-68
2023/06/11 10:53:36;;;;;;;;;26.00;24.33;;;;;28.28;50.83;100903.50;4935960;28;45440;-69
2023/06/11 10:56:02;;;;;;;;;27.33;25.33;;;;;28.36;50.91;100903.00;4936450;28;45441;-70
2023/06/11 10:58:29;;;;;;;;;28.00;26.67;;;;;28.42;50.37;100907.94;4936990;28;45485;-69
2023/06/11 11:00:55;;;;;;;;;30.67;29.67;;;;;28.30;49.92;100887.25;4934597;28;46687;-69
2023/06/11 11:03:24;;;;;;;;;30.33;28.33;;;;;28.08;50.26;100895.97;4937896;28;45550;-71
2023/06/11 11:05:50;;;;;;;;;31.33;24.33;;;;;28.05;50.91;100899.75;4940591;28;45530;-72
2023/06/11 11:08:16;;;;;;;;;33.00;30.00;;;;;28.08;50.79;100904.03;4940506;28;45407;-67
2023/06/11 11:10:42;;;;;;;;;28.67;28.33;;;;;28.11;50.51;100887.66;4940443;28;46526;-69